createdAt,value
2019-03-18T00:00:42.460Z,4.00
2019-03-18T00:03:12.710Z,4.00
2019-03-18T00:05:43.277Z,3.90
2019-03-18T00:08:12.754Z,3.90
2019-03-18T00:10:42.288Z,3.90
2019-03-18T00:13:11.756Z,3.90
2019-03-18T00:15:41.293Z,3.90
2019-03-18T00:18:11.008Z,4.00
2019-03-18T00:20:40.500Z,4.00
2019-03-18T00:23:10.173Z,4.00
2019-03-18T00:25:39.700Z,4.00
2019-03-18T00:28:09.167Z,3.90
2019-03-18T00:30:38.686Z,4.00
2019-03-18T00:33:08.210Z,4.00
2019-03-18T00:35:37.727Z,4.00
2019-03-18T00:38:07.624Z,3.90
2019-03-18T00:40:37.102Z,3.90
2019-03-18T00:43:06.655Z,3.80
2019-03-18T00:45:36.148Z,3.80
2019-03-18T00:48:05.688Z,3.80
2019-03-18T00:50:35.326Z,3.80
2019-03-18T00:53:04.900Z,3.80
2019-03-18T00:55:34.422Z,3.80
2019-03-18T00:58:05.137Z,3.80
2019-03-18T01:00:34.890Z,3.80
2019-03-18T01:03:04.595Z,3.80
2019-03-18T01:05:34.209Z,3.80
2019-03-18T01:08:03.862Z,3.70
2019-03-18T01:10:33.451Z,3.80
2019-03-18T01:13:04.394Z,3.80
2019-03-18T01:15:33.896Z,3.80
2019-03-18T01:18:03.448Z,3.80
2019-03-18T01:20:32.982Z,3.90
2019-03-18T01:23:02.585Z,3.90
2019-03-18T01:25:34.200Z,4.00
2019-03-18T01:28:03.720Z,4.00
2019-03-18T01:30:33.216Z,4.00
2019-03-18T01:33:02.757Z,4.00
2019-03-18T01:35:32.330Z,4.00
2019-03-18T01:38:01.869Z,4.00
2019-03-18T01:40:31.435Z,4.00
2019-03-18T01:43:00.909Z,4.00
2019-03-18T01:45:40.012Z,4.00
2019-03-18T01:48:02.961Z,4.00
2019-03-18T01:50:33.791Z,4.10
2019-03-18T01:53:03.273Z,4.00
2019-03-18T01:55:32.813Z,4.00
2019-03-18T01:58:02.381Z,4.10
2019-03-18T02:00:31.884Z,4.20
2019-03-18T02:03:01.905Z,4.20
2019-03-18T02:05:31.437Z,4.30
2019-03-18T02:08:00.985Z,4.30
2019-03-18T02:10:30.497Z,4.40
2019-03-18T02:13:01.604Z,4.40
2019-03-18T02:15:31.139Z,4.50
2019-03-18T02:18:00.669Z,4.50
2019-03-18T02:20:30.296Z,4.50
2019-03-18T02:22:59.864Z,4.50
2019-03-18T02:25:29.483Z,4.50
2019-03-18T02:27:58.977Z,4.40
2019-03-18T02:30:30.440Z,4.40
2019-03-18T02:32:59.978Z,4.30
2019-03-18T02:35:30.676Z,4.30
2019-03-18T02:38:01.036Z,4.30
2019-03-18T02:40:30.732Z,4.30
2019-03-18T02:43:00.245Z,4.30
2019-03-18T02:45:29.894Z,4.20
2019-03-18T02:47:59.490Z,4.20
2019-03-18T02:50:30.081Z,4.20
2019-03-18T02:53:00.228Z,4.20
2019-03-18T02:55:29.752Z,4.20
2019-03-18T02:57:59.456Z,4.30
2019-03-18T03:00:29.534Z,4.30
2019-03-18T03:02:59.026Z,4.30
2019-03-18T03:05:28.535Z,4.20
2019-03-18T03:07:58.213Z,4.30
2019-03-18T03:10:27.866Z,4.30
2019-03-18T03:12:57.905Z,4.20
2019-03-18T03:15:28.459Z,4.20
2019-03-18T03:17:57.952Z,4.20
2019-03-18T03:20:27.445Z,4.20
2019-03-18T03:22:58.332Z,4.20
2019-03-18T03:25:28.164Z,4.20
2019-03-18T03:27:57.686Z,4.20
2019-03-18T03:30:27.226Z,4.20
2019-03-18T03:32:56.862Z,4.20
2019-03-18T03:35:27.570Z,4.20
2019-03-18T03:37:58.282Z,4.20
2019-03-18T03:40:27.844Z,4.20
2019-03-18T03:42:57.363Z,4.20
2019-03-18T03:45:27.313Z,4.20
2019-03-18T03:47:57.680Z,4.10
2019-03-18T03:50:27.263Z,4.20
2019-03-18T03:52:56.760Z,4.10
2019-03-18T03:55:26.273Z,4.10
2019-03-18T03:57:56.899Z,4.10
2019-03-18T04:00:27.049Z,4.10
2019-03-18T04:02:56.608Z,4.10
2019-03-18T04:05:26.885Z,4.10
2019-03-18T04:07:56.730Z,4.10
2019-03-18T04:10:27.547Z,4.10
2019-03-18T04:12:57.462Z,4.00
2019-03-18T06:16:52.353Z,4.20
2019-03-18T06:19:34.890Z,4.20
2019-03-18T07:57:13.481Z,6.70
2019-03-18T07:59:42.945Z,6.60
2019-03-18T08:02:12.773Z,6.60
2019-03-18T08:04:42.433Z,6.60
2019-03-18T08:07:12.082Z,6.60
2019-03-18T08:09:42.081Z,6.70
2019-03-18T08:12:11.604Z,6.60
2019-03-18T08:14:41.200Z,6.50
2019-03-18T08:17:11.871Z,6.50
2019-03-18T08:19:41.512Z,6.60
2019-03-18T08:22:12.285Z,6.60
2019-03-18T08:24:42.236Z,6.60
2019-03-18T08:27:11.823Z,6.80
2019-03-18T08:29:43.340Z,6.80
2019-03-18T08:32:13.055Z,6.90
2019-03-18T08:34:43.014Z,7.10
2019-03-18T08:37:12.678Z,7.20
2019-03-18T08:39:42.304Z,7.40
2019-03-18T08:42:11.772Z,7.40
2019-03-18T08:44:41.819Z,7.40
2019-03-18T08:47:11.296Z,7.50
2019-03-18T08:49:40.805Z,7.60
2019-03-18T08:52:10.388Z,7.80
2019-03-18T08:54:41.301Z,7.90
2019-03-18T08:57:11.181Z,7.80
2019-03-18T08:59:41.023Z,7.90
2019-03-18T09:02:10.584Z,8.00
2019-03-18T09:04:40.100Z,8.20
2019-03-18T09:07:09.595Z,8.30
2019-03-18T09:09:39.537Z,8.40
2019-03-18T09:12:09.161Z,8.40
2019-03-18T09:14:38.648Z,8.60
2019-03-18T09:17:08.138Z,8.80
2019-03-18T09:19:37.750Z,8.80
2019-03-18T09:22:08.016Z,8.70
2019-03-18T09:24:37.848Z,8.80
2019-03-18T09:27:10.025Z,8.80
2019-03-18T09:29:39.984Z,8.80
2019-03-18T09:32:09.890Z,8.80
2019-03-18T09:34:41.326Z,9.00
2019-03-18T09:37:12.216Z,9.40
2019-03-18T09:39:41.884Z,9.60
2019-03-18T09:42:11.534Z,9.70
2019-03-18T09:44:41.150Z,9.90
2019-03-18T09:47:11.452Z,9.80
2019-03-18T09:49:40.966Z,10.10
2019-03-18T09:52:10.581Z,10.20
2019-03-18T09:54:40.217Z,10.00
2019-03-18T09:57:10.189Z,9.80
2019-03-18T09:59:39.922Z,9.70
2019-03-18T10:02:09.560Z,10.00
2019-03-18T10:04:39.123Z,10.00
2019-03-18T10:07:08.617Z,10.00
2019-03-18T10:09:38.425Z,10.00
2019-03-18T10:12:08.206Z,10.30
2019-03-18T10:14:37.712Z,10.70
2019-03-18T10:17:09.837Z,10.50
2019-03-18T10:19:38.480Z,10.60
2019-03-18T10:22:08.717Z,10.90
2019-03-18T10:24:38.973Z,11.10
2019-03-18T10:27:08.562Z,11.10
2019-03-18T10:29:38.046Z,11.20
2019-03-18T10:32:09.303Z,11.30
2019-03-18T10:34:39.836Z,11.00
2019-03-18T10:37:10.521Z,10.80
2019-03-18T10:39:40.067Z,10.50
2019-03-18T10:42:11.424Z,10.30
2019-03-18T10:44:41.357Z,9.80
2019-03-18T10:47:12.081Z,9.60
2019-03-18T10:49:46.396Z,9.20
2019-03-18T10:52:13.664Z,9.00
2019-03-18T10:54:43.226Z,8.90
2019-03-18T10:57:12.752Z,9.00
2019-03-18T10:59:43.067Z,9.10
2019-03-18T11:02:12.580Z,9.30
2019-03-18T11:04:42.070Z,9.40
2019-03-18T11:07:11.565Z,9.30
2019-03-18T11:09:41.564Z,9.30
2019-03-18T11:12:11.918Z,9.50
2019-03-18T11:14:41.537Z,9.70
2019-03-18T11:17:11.021Z,10.00
2019-03-18T11:19:40.500Z,10.10
2019-03-18T11:22:10.680Z,10.30
2019-03-18T11:24:40.992Z,10.40
2019-03-18T11:27:10.489Z,10.60
2019-03-18T11:29:40.005Z,10.80
2019-03-18T11:32:09.597Z,10.90
2019-03-18T11:34:39.078Z,10.90
2019-03-18T11:37:08.758Z,11.00
2019-03-18T11:39:38.586Z,11.10
2019-03-18T11:42:08.253Z,11.30
2019-03-18T11:44:37.845Z,11.10
2019-03-18T11:47:07.422Z,11.10
2019-03-18T11:49:39.867Z,11.00
2019-03-18T11:52:08.283Z,10.90
2019-03-18T11:54:38.402Z,10.80
2019-03-18T11:57:08.067Z,10.60
2019-03-18T11:59:37.595Z,10.40
2019-03-18T12:02:07.088Z,10.60
2019-03-18T12:04:36.706Z,10.60
2019-03-18T12:07:06.318Z,10.50
2019-03-18T12:09:36.027Z,10.40
2019-03-18T12:12:05.624Z,10.20
2019-03-18T12:14:35.124Z,10.10
2019-03-18T12:17:04.700Z,10.10
2019-03-18T12:19:34.222Z,9.90
2019-03-18T12:22:03.808Z,9.90
2019-03-18T12:24:33.405Z,9.70
2019-03-18T12:27:04.594Z,9.60
2019-03-18T12:29:34.211Z,9.60
2019-03-18T12:32:03.795Z,9.60
2019-03-18T12:34:33.320Z,9.60
2019-03-18T12:37:02.822Z,9.50
2019-03-18T12:39:32.586Z,9.60
2019-03-18T12:42:02.926Z,9.70
2019-03-18T12:44:33.446Z,9.90
2019-03-18T12:47:03.229Z,9.90
2019-03-18T12:49:32.765Z,9.90
2019-03-18T12:52:03.154Z,10.10
2019-03-18T12:54:32.765Z,10.30
2019-03-18T12:57:02.847Z,10.40
2019-03-18T12:59:32.345Z,10.50
2019-03-18T13:02:01.867Z,10.50
2019-03-18T13:04:34.028Z,10.30
2019-03-18T13:07:02.581Z,10.30
2019-03-18T13:09:32.100Z,10.30
2019-03-18T13:12:02.118Z,10.40
2019-03-18T13:14:31.684Z,10.60
2019-03-18T13:17:01.196Z,10.90
2019-03-18T13:19:30.689Z,10.90
2019-03-18T13:22:00.223Z,11.00
2019-03-18T13:24:29.842Z,11.20
2019-03-18T13:27:00.095Z,11.40
2019-03-18T13:29:29.867Z,11.60
2019-03-18T13:31:59.438Z,11.60
2019-03-18T13:34:29.045Z,11.50
2019-03-18T13:36:58.689Z,11.50
2019-03-18T13:39:28.552Z,11.60
2019-03-18T13:41:58.683Z,11.60
2019-03-18T13:44:28.213Z,11.70
2019-03-18T13:46:57.795Z,11.70
2019-03-18T13:49:27.293Z,11.70
2019-03-18T13:51:57.001Z,11.60
2019-03-18T13:54:26.506Z,11.50
2019-03-18T13:56:56.070Z,11.30
2019-03-18T13:59:25.572Z,11.20
2019-03-18T14:01:55.058Z,11.00
2019-03-18T14:04:24.905Z,10.80
2019-03-18T14:06:54.489Z,10.70
2019-03-18T14:09:24.032Z,10.30
2019-03-18T14:11:53.575Z,10.10
2019-03-18T14:14:24.559Z,9.70
2019-03-18T14:16:54.477Z,9.60
2019-03-18T14:19:24.251Z,9.40
2019-03-18T14:21:53.917Z,9.40
2019-03-18T14:24:23.416Z,9.40
2019-03-18T14:26:53.102Z,9.50
2019-03-18T14:29:23.335Z,9.60
2019-03-18T14:31:52.832Z,9.60
2019-03-18T14:34:22.609Z,9.70
2019-03-18T14:36:52.286Z,9.70
2019-03-18T14:39:22.325Z,9.70
2019-03-18T14:41:53.614Z,9.70
2019-03-18T14:44:23.196Z,9.60
2019-03-18T14:46:53.253Z,9.50
2019-03-18T14:49:22.998Z,9.50
2019-03-18T14:51:52.601Z,9.60
2019-03-18T14:54:22.636Z,9.60
2019-03-18T14:56:52.153Z,9.80
2019-03-18T14:59:21.705Z,10.10
2019-03-18T15:01:51.209Z,10.10
2019-03-18T15:04:20.821Z,10.10
2019-03-18T15:06:50.469Z,10.00
2019-03-18T15:09:20.044Z,10.00
2019-03-18T15:11:49.561Z,10.10
2019-03-18T15:14:19.112Z,10.00
2019-03-18T15:16:48.628Z,9.90
2019-03-18T15:19:18.601Z,9.70
2019-03-18T15:21:57.864Z,9.60
2019-03-18T15:24:19.488Z,9.60
2019-03-18T15:26:49.113Z,9.70
2019-03-18T15:29:19.777Z,9.70
2019-03-18T15:31:52.057Z,9.70
2019-03-18T15:34:20.609Z,9.70
2019-03-18T15:36:50.198Z,9.80
2019-03-18T15:39:20.142Z,9.90
2019-03-18T15:41:51.943Z,9.70
2019-03-18T15:44:21.558Z,9.80
2019-03-18T15:46:51.118Z,9.70
2019-03-18T15:49:21.014Z,9.70
2019-03-18T15:51:50.889Z,9.60
2019-03-18T15:54:20.413Z,9.50
2019-03-18T15:56:50.003Z,9.60
2019-03-18T15:59:21.054Z,9.50
2019-03-18T16:01:50.633Z,9.50
2019-03-18T16:04:20.154Z,9.50
2019-03-18T16:06:49.709Z,9.50
2019-03-18T16:09:20.545Z,9.50
2019-03-18T16:11:50.080Z,9.50
2019-03-18T16:14:20.152Z,9.40
2019-03-18T16:17:01.233Z,9.40
2019-03-18T16:19:22.155Z,9.30
2019-03-18T16:21:51.705Z,9.30
2019-03-18T16:24:21.207Z,9.20
2019-03-18T16:26:50.695Z,9.10
2019-03-18T16:29:20.219Z,9.10
2019-03-18T16:31:49.713Z,9.10
2019-03-18T16:34:20.142Z,9.10
2019-03-18T16:36:49.742Z,9.10
2019-03-18T16:39:19.256Z,9.10
2019-03-18T16:41:48.746Z,9.10
2019-03-18T16:44:18.906Z,9.00
2019-03-18T16:46:48.458Z,8.90
2019-03-18T16:49:17.984Z,8.90
2019-03-18T16:51:47.464Z,8.90
2019-03-18T16:54:16.988Z,8.90
2019-03-18T16:56:46.912Z,8.90
2019-03-18T16:59:16.425Z,8.80
2019-03-18T17:01:45.950Z,8.80
2019-03-18T17:04:16.877Z,8.70
2019-03-18T17:06:47.175Z,8.70
2019-03-18T17:09:17.286Z,8.80
2019-03-18T17:11:47.371Z,8.70
2019-03-18T17:14:16.991Z,8.70
2019-03-18T17:16:46.678Z,8.60
2019-03-18T17:19:16.714Z,8.70
2019-03-18T17:21:46.308Z,8.70
2019-03-18T17:24:15.966Z,8.60
2019-03-18T17:26:45.508Z,8.60
2019-03-18T17:29:15.013Z,8.50
2019-03-18T17:31:45.245Z,8.40
2019-03-18T17:34:14.745Z,8.30
2019-03-18T17:36:44.265Z,8.30
2019-03-18T17:39:14.786Z,8.30
2019-03-18T17:41:45.061Z,8.30
2019-03-18T17:44:15.788Z,8.20
2019-03-18T17:46:45.387Z,8.20
2019-03-18T17:49:15.981Z,8.10
2019-03-18T17:51:45.541Z,8.10
2019-03-18T17:54:15.370Z,8.10
2019-03-18T17:56:47.078Z,8.10
2019-03-18T17:59:16.640Z,8.10
2019-03-18T18:01:46.174Z,8.10
2019-03-18T18:04:15.941Z,8.00
2019-03-18T18:06:45.890Z,8.00
2019-03-18T18:09:16.658Z,8.00
2019-03-18T18:11:46.137Z,8.00
2019-03-18T18:14:15.611Z,8.00
2019-03-18T18:16:45.152Z,7.90
2019-03-18T18:19:14.702Z,7.90
2019-03-18T18:21:44.336Z,7.80
2019-03-18T18:24:13.839Z,7.80
2019-03-18T18:26:43.346Z,7.80
2019-03-18T18:29:14.376Z,7.80
2019-03-18T18:31:44.522Z,7.70
2019-03-18T18:34:14.310Z,7.60
2019-03-18T18:36:43.835Z,7.40
2019-03-18T18:39:13.421Z,7.30
2019-03-18T18:41:42.919Z,7.30
2019-03-18T18:44:12.480Z,7.20
2019-03-18T18:46:42.370Z,7.20
2019-03-18T18:49:12.407Z,7.20
2019-03-18T18:51:42.027Z,7.10
2019-03-18T18:54:11.601Z,7.00
2019-03-18T18:56:43.610Z,6.90
2019-03-18T18:59:14.550Z,6.90
2019-03-18T19:01:45.110Z,6.80
2019-03-18T19:04:14.687Z,6.70
2019-03-18T19:06:44.623Z,6.60
2019-03-18T19:09:14.729Z,6.60
2019-03-18T19:11:44.356Z,6.50
2019-03-18T19:14:13.946Z,6.40
2019-03-18T19:16:43.574Z,6.30
2019-03-18T19:19:16.300Z,6.20
2019-03-18T19:21:45.988Z,6.20
2019-03-18T19:24:15.553Z,6.10
2019-03-18T19:26:45.516Z,6.00
2019-03-18T19:29:15.138Z,5.90
2019-03-18T19:31:44.640Z,5.90
2019-03-18T19:34:14.728Z,5.90
2019-03-18T19:36:44.286Z,5.80
2019-03-18T19:39:13.797Z,5.80
2019-03-18T19:41:43.700Z,5.80
2019-03-18T19:44:13.303Z,5.70
2019-03-18T19:46:43.316Z,5.70
2019-03-18T19:49:12.808Z,5.60
2019-03-18T19:51:42.330Z,5.60
2019-03-18T19:54:12.964Z,5.50
2019-03-18T19:56:44.210Z,5.40
2019-03-18T19:59:14.503Z,5.40
2019-03-18T20:01:44.017Z,5.30
2019-03-18T20:04:13.761Z,5.30
2019-03-18T20:06:43.521Z,5.20
2019-03-18T20:09:13.030Z,5.10
2019-03-18T20:11:42.748Z,5.10
2019-03-18T20:14:12.412Z,5.00
2019-03-18T20:16:41.897Z,4.90
2019-03-18T20:19:11.502Z,4.90
2019-03-18T20:21:40.984Z,4.80
2019-03-18T20:24:10.525Z,4.70
2019-03-18T20:26:40.569Z,4.60
2019-03-18T20:29:10.310Z,4.50
2019-03-18T20:31:40.889Z,4.40
2019-03-18T20:34:10.407Z,4.30
2019-03-18T20:36:39.930Z,4.20
2019-03-18T20:39:09.500Z,4.20
2019-03-18T20:41:41.123Z,4.10
2019-03-18T20:44:11.570Z,4.00
2019-03-18T20:46:41.146Z,3.90
2019-03-18T20:49:10.720Z,3.80
2019-03-18T20:51:40.395Z,3.70
2019-03-18T20:54:12.265Z,3.70
2019-03-18T20:56:41.277Z,3.60
2019-03-18T20:59:11.104Z,3.60
2019-03-18T21:01:40.666Z,3.50
2019-03-18T21:04:10.407Z,3.50
2019-03-18T21:06:40.084Z,3.40
2019-03-18T21:09:09.767Z,3.30
2019-03-18T21:11:39.273Z,3.20
2019-03-18T21:14:08.826Z,3.20
2019-03-18T21:16:39.021Z,3.10
2019-03-18T21:19:09.611Z,3.10
2019-03-18T21:21:39.486Z,3.00
2019-03-18T21:24:09.009Z,3.00
2019-03-18T21:26:38.513Z,2.90
2019-03-18T21:29:08.031Z,2.90
2019-03-18T21:31:40.454Z,2.90
2019-03-18T21:34:10.172Z,2.80
2019-03-18T21:36:39.693Z,2.80
2019-03-18T21:39:09.188Z,2.70
2019-03-18T21:41:40.212Z,2.60
2019-03-18T21:44:09.751Z,2.60
2019-03-18T21:46:39.937Z,2.60
2019-03-18T21:49:09.453Z,2.50
2019-03-18T21:51:39.104Z,2.50
2019-03-18T21:54:10.033Z,2.50
2019-03-18T21:56:39.595Z,2.40
2019-03-18T21:59:09.479Z,2.40
2019-03-18T22:01:39.029Z,2.30
2019-03-18T22:04:09.524Z,2.30
2019-03-18T22:06:39.724Z,2.30
2019-03-18T22:09:09.381Z,2.30
2019-03-18T22:11:39.429Z,2.20
2019-03-18T22:14:08.942Z,2.20
2019-03-18T22:16:38.714Z,2.20
2019-03-18T22:19:08.230Z,2.20
2019-03-18T22:21:37.905Z,2.10
2019-03-18T22:24:10.933Z,2.00
2019-03-18T22:26:40.480Z,2.00
2019-03-18T22:29:10.272Z,2.00
2019-03-18T22:31:40.009Z,2.00
2019-03-18T22:34:09.630Z,2.00
2019-03-18T22:36:39.822Z,1.90
2019-03-18T22:39:09.956Z,1.90
2019-03-18T22:41:39.578Z,1.90
2019-03-18T22:44:09.069Z,1.90
2019-03-18T22:46:38.549Z,1.80
2019-03-18T22:49:09.608Z,1.80
2019-03-18T22:51:39.915Z,1.70
2019-03-18T22:54:09.792Z,1.70
2019-03-18T22:56:39.712Z,1.70
2019-03-18T22:59:09.248Z,1.60
2019-03-18T23:01:39.171Z,1.60
2019-03-18T23:04:10.987Z,1.60
2019-03-18T23:06:40.664Z,1.50
2019-03-18T23:09:11.720Z,1.50
2019-03-18T23:11:41.438Z,1.50
2019-03-18T23:14:10.956Z,1.50
2019-03-18T23:16:40.483Z,1.40
2019-03-18T23:19:09.986Z,1.40
2019-03-18T23:21:39.531Z,1.30
2019-03-18T23:24:09.398Z,1.30
2019-03-18T23:26:38.998Z,1.30
2019-03-18T23:29:08.593Z,1.30
2019-03-18T23:31:38.109Z,1.20
2019-03-18T23:34:09.203Z,1.20
2019-03-18T23:36:38.733Z,1.20
2019-03-18T23:39:09.628Z,1.20
2019-03-18T23:41:39.701Z,1.20
2019-03-18T23:44:09.238Z,1.10
2019-03-18T23:46:44.676Z,1.10
2019-03-18T23:49:16.837Z,1.10
2019-03-18T23:51:46.348Z,1.00
2019-03-18T23:54:15.904Z,1.00
2019-03-18T23:56:45.793Z,1.00
2019-03-18T23:59:17.845Z,1.00
